Decoded Metar for PFYU (FORT YUKON in AK, USA) (IATA:FYU) | Meteo·Mobile Aviation Weather
aviador You're here:

PFYU Decoded Metar

FORT YUKON in AK, USA
Report Time2018-09-18 20:56:00
UTC Time2018-09-18 21:56:29
Flight Rules vfr VFR
Wind350° at 03 kt
W.Decomp.*RWY 04: 0.8 kt HW 2.9 kt LCW
W.Rank350° ranks 21
Current wind is below 350° avg. (4.3)
Visibility9999 m
Phenomena:N/A
Clouds:Few 055 Hf
Overcast 080 Hf
Expected CloudBase > 3,200 ft AGL from Temp-Dew spread
Ceiling8,000 ft
Temp06°C (ISA -6)
Dew Point-2°C (57% RH)
AAT2.7°C
QNH1023 hPa
Density Alt410 ft
Elevation1,414 ft
Report Wrong Elevation
Raw Report
PFYU 182056Z 35003KT 10SM FEW055 OVC080 06/M02 A3022=

Extra information for PFYU:More info

Metar Taf Metar & Taf Last 4 Metars F.Rules Stats Wind Profile Meteogram Temp Stats Airport Information Weather charts Add Link Nearby VenuesMetar ALERT Operation Metar Decoded Social comments

AIRNAV info for PFYU